Laurelville, Pennsylvania
Current Conditions -  °F | °C
As of 4:53 AM on Monday 26 Jan 2015 (Local Time) from KLNS Reporting Station
Light Snow Light Snow  
Wind Chill: 14°   Ceiling: 1900
Heat Index: 25°   Visibility: 4mi
Dew Point: 21°   Wind: 13mph
Humidity: 85%   Direction: 90°E
Pressure: 29.88"   Gusts: NA
Location:  40.1038°N, 76.0725°W
Report Text: KLNS 260953Z AUTO 09011KT 4SM -SN BR OVC019 M04/M06 A2988 RMK AO2 SLP121 P0000 T10391061
Loading
Personal Weather Stations






























Interactive Weather Map New forecast layout! Learn more

10-Day Weather Forecast

Advertisements
Track Severe Weather on mobile